Loutro — 9HA2556 — position and weather

sailwx.info

Track history (hours):
 
Tides and Currents Weather Stations Pressure Air Temp Water Temp Dewpoint Dewpoint Depression Visibility Wind Speed Wind Dir Waves Ship Positions

Loutro

Last reported at 2017-Nov-22 20:29 UTC. Time now 2017-Nov-22 20:52 UTC.
Position N 40°57' E 024°33'.

Length 89 m; draft 6.9 m.

Type: Tanker. MMSI: 248870000.

Date/timePositionNaut miles runAvg speedWind from/ knotsBaromVisibWave heightAir tempDewpointWater temp
2017-Nov-22 20:29N 40°57' E 024°33'0 0.0
2017-Nov-22 19:59N 40°57' E 024°33'0 0.0
2017-Nov-22 19:29N 40°57' E 024°33'  
2017-Nov-20 00:28N 37°55' E 023°05'0 0.0
2017-Nov-19 23:58N 37°55' E 023°05'0 0.0
2017-Nov-19 23:28N 37°55' E 023°05'0 0.0
2017-Nov-19 22:58N 37°55' E 023°05'0 0.0
2017-Nov-19 22:28N 37°55' E 023°05'0 0.0
2017-Nov-19 21:58N 37°55' E 023°05'0 0.0
2017-Nov-19 21:28N 37°55' E 023°05'0 0.4
2017-Nov-19 21:00N 37°55' E 023°05'1 1.0
2017-Nov-19 20:29N 37°55' E 023°06'0 0.0
2017-Nov-19 19:59N 37°55' E 023°06'0 0.0
2017-Nov-19 19:29N 37°55' E 023°06'0 0.0
2017-Nov-19 18:59N 37°55' E 023°06'0 0.0
2017-Nov-19 18:29N 37°55' E 023°06'0 0.1
2017-Nov-19 17:59N 37°55' E 023°06'0 0.0
2017-Nov-19 17:29N 37°55' E 023°06'0 0.0
2017-Nov-19 16:59N 37°55' E 023°06'0 0.1
2017-Nov-19 16:29N 37°55' E 023°06'0 0.1
2017-Nov-19 15:59N 37°55' E 023°06'0 0.1
2017-Nov-19 15:29N 37°55' E 023°06'0 0.0
2017-Nov-19 14:59N 37°55' E 023°06'0 0.1
2017-Nov-19 14:29N 37°55' E 023°06'0 0.0
2017-Nov-19 13:59N 37°55' E 023°06'0 0.0
2017-Nov-19 13:29N 37°55' E 023°06'0 0.0
2017-Nov-19 12:59N 37°55' E 023°06'0 0.0
2017-Nov-19 12:29N 37°55' E 023°06'0 0.1
2017-Nov-19 11:59N 37°55' E 023°06'0 0.0
2017-Nov-19 11:29N 37°55' E 023°06'0 0.1
2017-Nov-19 10:59N 37°55' E 023°06'0 0.0
2017-Nov-19 10:29N 37°55' E 023°06'0 0.0
2017-Nov-19 10:00N 37°55' E 023°06'0 0.0
2017-Nov-19 09:30N 37°55' E 023°06'0 0.1
2017-Nov-19 09:00N 37°55' E 023°06'2 4.7
2017-Nov-19 08:30N 37°54' E 023°09'4 8.6
2017-Nov-19 08:00N 37°53' E 023°14'5 9.7
2017-Nov-19 07:30N 37°53' E 023°20'5 9.8
2017-Nov-19 07:00N 37°52' E 023°26'5 9.1
2017-Nov-19 06:30N 37°54' E 023°32'4 8.1
2017-Nov-19 05:59N 37°57' E 023°35'0 0.0
2017-Nov-19 05:26N 37°57' E 023°35'0 0.0
2017-Nov-19 04:41N 37°57' E 023°35'0 0.0
2017-Nov-19 04:29N 37°57' E 023°35'0 0.0
2017-Nov-19 03:59N 37°57' E 023°35'0 0.0
2017-Nov-19 03:29N 37°57' E 023°35'0 0.0
2017-Nov-19 02:59N 37°57' E 023°35'0 0.0
2017-Nov-19 02:20N 37°57' E 023°35'0 0.0
2017-Nov-19 01:38N 37°57' E 023°35'0 0.0
2017-Nov-19 01:23N 37°57' E 023°35'0 0.0
2017-Nov-19 00:44N 37°57' E 023°35'0 0.0
2017-Nov-19 00:26N 37°57' E 023°35'0 0.0
2017-Nov-18 23:59N 37°57' E 023°35'0 0.0
2017-Nov-18 23:26N 37°57' E 023°35'0 0.0
2017-Nov-18 22:59N 37°57' E 023°35'0 0.0
2017-Nov-18 20:56N 37°57' E 023°35'0 0.0
2017-Nov-18 07:26N 37°57' E 023°35'0 0.0
2017-Nov-18 06:59N 37°57' E 023°35'0 0.0
2017-Nov-18 02:26N 37°57' E 023°35'0 0.0
2017-Nov-18 01:44N 37°57' E 023°35'0 0.0
2017-Nov-18 01:20N 37°57' E 023°35'0 0.0
2017-Nov-18 00:50N 37°57' E 023°35'0 0.0
2017-Nov-18 00:26N 37°57' E 023°35'0 0.0
2017-Nov-17 21:32N 37°57' E 023°35'0 0.0
2017-Nov-17 21:26N 37°57' E 023°35'0 0.0
2017-Nov-17 19:08N 37°57' E 023°35'0 0.0
2017-Nov-17 18:56N 37°57' E 023°35'0 0.0
2017-Nov-17 18:29N 37°57' E 023°35'0 0.0
2017-Nov-17 17:44N 37°57' E 023°35'0 0.0
2017-Nov-17 17:26N 37°57' E 023°35'0 0.0
2017-Nov-17 15:02N 37°57' E 023°35'0 0.0
2017-Nov-17 14:59N 37°57' E 023°35'0 0.0
2017-Nov-17 13:35N 37°57' E 023°35'0 0.0
2017-Nov-17 13:26N 37°57' E 023°35'0 0.0
2017-Nov-17 11:38N 37°57' E 023°35'0 0.0
2017-Nov-17 11:20N 37°57' E 023°35'0 0.0
2017-Nov-17 10:59N 37°57' E 023°35'0 0.0
2017-Nov-17 10:29N 37°57' E 023°35'0 0.0
2017-Nov-17 09:59N 37°57' E 023°35'0 0.0
2017-Nov-17 09:29N 37°57' E 023°35'0 0.0
2017-Nov-17 08:59N 37°57' E 023°35'0 0.0
2017-Nov-17 08:26N 37°57' E 023°35'0 0.0
2017-Nov-17 07:59N 37°57' E 023°35'0 0.0
2017-Nov-17 07:26N 37°57' E 023°35'0 0.0
2017-Nov-17 06:59N 37°57' E 023°35'0 0.0
2017-Nov-17 06:29N 37°57' E 023°35'0 0.0
2017-Nov-17 05:59N 37°57' E 023°35'0 0.0
2017-Nov-17 05:29N 37°57' E 023°35'0 0.0
2017-Nov-17 04:59N 37°57' E 023°35'0 0.0
2017-Nov-17 04:26N 37°57' E 023°35'0 0.0
2017-Nov-17 03:59N 37°57' E 023°35'0 0.0
2017-Nov-17 03:29N 37°57' E 023°35'0 0.0
2017-Nov-17 02:59N 37°57' E 023°35'0 0.0
2017-Nov-17 02:29N 37°57' E 023°35'0 0.0
2017-Nov-17 01:59N 37°57' E 023°35'0 0.0
2017-Nov-17 01:29N 37°57' E 023°35'0 0.0
2017-Nov-17 00:59N 37°57' E 023°35'0 0.0
2017-Nov-17 00:29N 37°57' E 023°35'0 0.0
2017-Nov-16 23:59N 37°57' E 023°35'0 0.0
2017-Nov-16 23:29N 37°57' E 023°35'0 0.0
2017-Nov-16 22:59N 37°57' E 023°35'0 0.0
2017-Nov-16 22:29N 37°57' E 023°35'0 0.0
2017-Nov-16 21:59N 37°57' E 023°35'0 0.0
2017-Nov-16 21:29N 37°57' E 023°35'0 0.0
2017-Nov-16 20:59N 37°57' E 023°35'0 0.0
2017-Nov-16 20:29N 37°57' E 023°35'0 0.0
2017-Nov-16 19:59N 37°57' E 023°35'0 0.0
2017-Nov-16 19:29N 37°57' E 023°35'0 0.0
2017-Nov-16 18:59N 37°57' E 023°35'0 0.0
2017-Nov-16 18:29N 37°57' E 023°35'0 0.0
2017-Nov-16 17:59N 37°57' E 023°35'0 0.0
2017-Nov-16 17:29N 37°57' E 023°35'2 3.3
2017-Nov-16 17:00N 37°56' E 023°35'4 7.8
2017-Nov-16 16:30N 37°52' E 023°33'4 7.1
2017-Nov-16 16:01N 37°50' E 023°29'4 7.9
2017-Nov-16 15:30N 37°51' E 023°24'4 7.9
2017-Nov-16 15:00N 37°52' E 023°20'4 8.1
2017-Nov-16 14:30N 37°53' E 023°15'4 8.3
2017-Nov-16 14:01N 37°54' E 023°09'4 7.1
2017-Nov-16 13:30N 37°55' E 023°05'0 0.1
2017-Nov-16 13:00N 37°55' E 023°05'0 0.0
2017-Nov-16 12:30N 37°55' E 023°05'0 0.0
2017-Nov-16 12:00N 37°55' E 023°05'0 0.0
2017-Nov-16 11:30N 37°55' E 023°05'0 0.0
2017-Nov-16 11:00N 37°55' E 023°05'0 0.0
2017-Nov-16 10:30N 37°55' E 023°05'0 0.0
2017-Nov-16 10:00N 37°55' E 023°05'0 0.0
2017-Nov-16 09:30N 37°55' E 023°05'0 0.0
2017-Nov-16 09:00N 37°55' E 023°05'0 0.0
2017-Nov-16 08:30N 37°55' E 023°05'0 0.0
2017-Nov-16 08:00N 37°55' E 023°05'0 0.0
2017-Nov-16 07:30N 37°55' E 023°05'0 0.0
2017-Nov-16 07:00N 37°55' E 023°05'0 0.0
2017-Nov-16 06:30N 37°55' E 023°05'0 0.0
2017-Nov-16 06:00N 37°55' E 023°05'0 0.0
2017-Nov-16 05:30N 37°55' E 023°05'0 0.0
2017-Nov-16 05:00N 37°55' E 023°05'0 0.0
2017-Nov-16 04:30N 37°55' E 023°05'0 0.0
2017-Nov-16 04:00N 37°55' E 023°05'0 0.0
2017-Nov-16 03:30N 37°55' E 023°05'0 0.0
2017-Nov-16 03:00N 37°55' E 023°05'0 0.0
2017-Nov-16 02:30N 37°55' E 023°05'0 0.0
2017-Nov-16 02:00N 37°55' E 023°05'0 0.0
2017-Nov-16 01:30N 37°55' E 023°05'0 0.0
2017-Nov-16 01:00N 37°55' E 023°05'0 0.0
2017-Nov-16 00:30N 37°55' E 023°05'0 0.0
2017-Nov-16 00:00N 37°55' E 023°05'0 0.0
2017-Nov-15 23:30N 37°55' E 023°05'0 0.0
2017-Nov-15 23:00N 37°55' E 023°05'0 0.0
2017-Nov-15 22:30N 37°55' E 023°05'0 0.0
2017-Nov-15 22:00N 37°55' E 023°05'0 0.0
2017-Nov-15 21:30N 37°55' E 023°05'0 0.0
2017-Nov-15 21:00N 37°55' E 023°05'0 0.0
2017-Nov-15 20:30N 37°55' E 023°05'0 0.0
2017-Nov-15 20:00N 37°55' E 023°05'0 0.0
2017-Nov-15 19:30N 37°55' E 023°05'0 0.0
2017-Nov-15 19:00N 37°55' E 023°05'0 0.0
2017-Nov-15 18:30N 37°55' E 023°05'0 0.0
2017-Nov-15 18:00N 37°55' E 023°05'0 0.0
2017-Nov-15 17:30N 37°55' E 023°05'0 0.0
2017-Nov-15 17:00N 37°55' E 023°05'0 0.0
2017-Nov-15 16:30N 37°55' E 023°05'0 0.0
2017-Nov-15 16:00N 37°55' E 023°05'0 0.0
2017-Nov-15 15:30N 37°55' E 023°05'0 0.0
2017-Nov-15 15:00N 37°55' E 023°05'0 0.0
2017-Nov-15 14:30N 37°55' E 023°05'0 0.0
2017-Nov-15 14:00N 37°55' E 023°05'0 0.0
2017-Nov-15 13:30N 37°55' E 023°05'0 0.0
2017-Nov-15 13:00N 37°55' E 023°05'0 0.0
2017-Nov-15 12:30N 37°55' E 023°05'0 0.0
2017-Nov-15 12:00N 37°55' E 023°05'0 0.0
2017-Nov-15 11:30N 37°55' E 023°05'0 0.0
2017-Nov-15 11:00N 37°55' E 023°05'0 0.0
2017-Nov-15 10:30N 37°55' E 023°05'0 0.0
2017-Nov-15 10:00N 37°55' E 023°05'0 0.0
2017-Nov-15 09:30N 37°55' E 023°05'0 0.0
2017-Nov-15 09:00N 37°55' E 023°05'0 0.0
2017-Nov-15 08:30N 37°55' E 023°05'0 0.0
2017-Nov-15 08:00N 37°55' E 023°05'0 0.2
2017-Nov-15 07:31N 37°55' E 023°05'1 1.0
2017-Nov-15 06:59N 37°55' E 023°06'0 0.1
2017-Nov-15 06:29N 37°55' E 023°06'0 0.1
2017-Nov-15 05:59N 37°55' E 023°06'0 0.0
2017-Nov-15 05:29N 37°55' E 023°06'0 0.0
2017-Nov-15 04:59N 37°55' E 023°06'0 0.0
2017-Nov-15 04:29N 37°55' E 023°06'0 0.0
2017-Nov-15 03:59N 37°55' E 023°06'0 0.0
2017-Nov-15 03:29N 37°55' E 023°06'0 0.0
2017-Nov-15 02:59N 37°55' E 023°06'0 0.0
2017-Nov-15 02:26N 37°55' E 023°06'0 0.0
2017-Nov-15 01:59N 37°55' E 023°06'0 0.0
2017-Nov-15 01:29N 37°55' E 023°06'0 0.1
2017-Nov-15 00:59N 37°55' E 023°06'0 0.0
2017-Nov-15 00:29N 37°55' E 023°06'0 0.0
2017-Nov-14 23:59N 37°55' E 023°06'0 0.0
2017-Nov-14 23:29N 37°55' E 023°06'0 0.1
2017-Nov-14 23:00N 37°55' E 023°06'3 6.5
2017-Nov-14 22:30N 37°54' E 023°10'5 9.5
2017-Nov-14 22:00N 37°53' E 023°16'5 9.5
2017-Nov-14 21:30N 37°52' E 023°22'5 9.8
2017-Nov-14 21:00N 37°52' E 023°28'5 9.4
2017-Nov-14 20:30N 37°54' E 023°33'3 6.9
2017-Nov-14 20:00N 37°57' E 023°35'0 0.0
2017-Nov-14 19:30N 37°57' E 023°35'0 0.0
2017-Nov-14 19:00N 37°57' E 023°35'0 0.0
2017-Nov-14 18:30N 37°57' E 023°35'0 0.0
2017-Nov-14 18:00N 37°57' E 023°35'0 0.0
2017-Nov-14 17:30N 37°57' E 023°35'0 0.0
2017-Nov-14 17:00N 37°57' E 023°35'0 0.0
2017-Nov-14 16:30N 37°57' E 023°35'0 0.0
2017-Nov-14 16:00N 37°57' E 023°35'0 0.0
2017-Nov-14 15:30N 37°57' E 023°35'0 0.0
2017-Nov-14 15:00N 37°57' E 023°35'0 0.0
2017-Nov-14 14:30N 37°57' E 023°35'0 0.0
2017-Nov-14 14:00N 37°57' E 023°35'0 0.0
2017-Nov-14 13:30N 37°57' E 023°35'0 0.0
2017-Nov-14 13:00N 37°57' E 023°35'0 0.0
2017-Nov-14 12:30N 37°57' E 023°35'0 0.0
2017-Nov-14 12:00N 37°57' E 023°35'0 0.0
2017-Nov-14 11:30N 37°57' E 023°35'0 0.0
2017-Nov-14 11:00N 37°57' E 023°35'0 0.0
2017-Nov-14 10:30N 37°57' E 023°35'0 0.0
2017-Nov-14 10:00N 37°57' E 023°35'0 0.0
2017-Nov-14 09:30N 37°57' E 023°35'0 0.0
2017-Nov-14 09:00N 37°57' E 023°35'0 0.0
2017-Nov-14 08:27N 37°57' E 023°35'0 0.0
2017-Nov-14 08:00N 37°57' E 023°35'0 0.0
2017-Nov-14 07:30N 37°57' E 023°35'0 0.0
2017-Nov-14 07:00N 37°57' E 023°35'0 0.0
2017-Nov-14 06:30N 37°57' E 023°35'0 0.0
2017-Nov-14 06:00N 37°57' E 023°35'0 0.0
2017-Nov-14 05:30N 37°57' E 023°35'0 0.0
2017-Nov-14 05:00N 37°57' E 023°35'0 0.0
2017-Nov-14 04:30N 37°57' E 023°35'0 0.0
2017-Nov-14 04:00N 37°57' E 023°35'0 0.0
2017-Nov-14 03:30N 37°57' E 023°35'0 0.0
2017-Nov-14 03:00N 37°57' E 023°35'0 0.0
2017-Nov-14 02:30N 37°57' E 023°35'0 0.0
2017-Nov-14 02:00N 37°57' E 023°35'0 0.0
2017-Nov-14 01:30N 37°57' E 023°35'0 0.0
2017-Nov-14 01:00N 37°57' E 023°35'0 0.0
2017-Nov-14 00:30N 37°57' E 023°35'0 0.0
2017-Nov-14 00:00N 37°57' E 023°35'0 0.0
2017-Nov-13 23:30N 37°57' E 023°35'0 0.0
2017-Nov-13 23:00N 37°57' E 023°35'0 0.0
2017-Nov-13 22:30N 37°57' E 023°35'0 0.0
2017-Nov-13 22:00N 37°57' E 023°35'0 0.0
2017-Nov-13 02:00N 37°57' E 023°35'0 0.0
2017-Nov-13 01:30N 37°57' E 023°35'0 0.0
2017-Nov-13 01:00N 37°57' E 023°35'0 0.0
2017-Nov-13 00:30N 37°57' E 023°35'0 0.0
2017-Nov-13 00:00N 37°57' E 023°35'0 0.0
2017-Nov-12 23:30N 37°57' E 023°35'0 0.0
2017-Nov-12 23:00N 37°57' E 023°35'0 0.0
2017-Nov-12 22:30N 37°57' E 023°35'0 0.0
2017-Nov-12 22:00N 37°57' E 023°35'0 0.0
2017-Nov-12 21:30N 37°57' E 023°35'0 0.0
2017-Nov-12 21:00N 37°57' E 023°35'0 0.0
2017-Nov-12 20:30N 37°57' E 023°35'  
Track history (hours):
 
Tides and Currents Weather Stations Pressure Air Temp Water Temp Dewpoint Dewpoint Depression Visibility Wind Speed Wind Dir Waves Ship Positions

Loutro

Last reported at 2017-Nov-22 20:29 UTC. Time now 2017-Nov-22 20:52 UTC.
Position N 40°57' E 024°33'.

Length 89 m; draft 6.9 m.

Type: Tanker. MMSI: 248870000.

Date/timePositionNaut miles runAvg speedWind from/ knotsBaromVisibWave heightAir tempDewpointWater temp
2017-Nov-22 20:29N 40°57' E 024°33'0 0.0
2017-Nov-22 19:59N 40°57' E 024°33'0 0.0
2017-Nov-22 19:29N 40°57' E 024°33'  
2017-Nov-20 00:28N 37°55' E 023°05'0 0.0
2017-Nov-19 23:58N 37°55' E 023°05'0 0.0
2017-Nov-19 23:28N 37°55' E 023°05'0 0.0
2017-Nov-19 22:58N 37°55' E 023°05'0 0.0
2017-Nov-19 22:28N 37°55' E 023°05'0 0.0
2017-Nov-19 21:58N 37°55' E 023°05'0 0.0
2017-Nov-19 21:28N 37°55' E 023°05'0 0.4
2017-Nov-19 21:00N 37°55' E 023°05'1 1.0
2017-Nov-19 20:29N 37°55' E 023°06'0 0.0
2017-Nov-19 19:59N 37°55' E 023°06'0 0.0
2017-Nov-19 19:29N 37°55' E 023°06'0 0.0
2017-Nov-19 18:59N 37°55' E 023°06'0 0.0
2017-Nov-19 18:29N 37°55' E 023°06'0 0.1
2017-Nov-19 17:59N 37°55' E 023°06'0 0.0
2017-Nov-19 17:29N 37°55' E 023°06'0 0.0
2017-Nov-19 16:59N 37°55' E 023°06'0 0.1
2017-Nov-19 16:29N 37°55' E 023°06'0 0.1
2017-Nov-19 15:59N 37°55' E 023°06'0 0.1
2017-Nov-19 15:29N 37°55' E 023°06'0 0.0
2017-Nov-19 14:59N 37°55' E 023°06'0 0.1
2017-Nov-19 14:29N 37°55' E 023°06'0 0.0
2017-Nov-19 13:59N 37°55' E 023°06'0 0.0
2017-Nov-19 13:29N 37°55' E 023°06'0 0.0
2017-Nov-19 12:59N 37°55' E 023°06'0 0.0
2017-Nov-19 12:29N 37°55' E 023°06'0 0.1
2017-Nov-19 11:59N 37°55' E 023°06'0 0.0
2017-Nov-19 11:29N 37°55' E 023°06'0 0.1
2017-Nov-19 10:59N 37°55' E 023°06'0 0.0
2017-Nov-19 10:29N 37°55' E 023°06'0 0.0
2017-Nov-19 10:00N 37°55' E 023°06'0 0.0
2017-Nov-19 09:30N 37°55' E 023°06'0 0.1
2017-Nov-19 09:00N 37°55' E 023°06'2 4.7
2017-Nov-19 08:30N 37°54' E 023°09'4 8.6
2017-Nov-19 08:00N 37°53' E 023°14'5 9.7
2017-Nov-19 07:30N 37°53' E 023°20'5 9.8
2017-Nov-19 07:00N 37°52' E 023°26'5 9.1
2017-Nov-19 06:30N 37°54' E 023°32'4 8.1
2017-Nov-19 05:59N 37°57' E 023°35'0 0.0
2017-Nov-19 05:26N 37°57' E 023°35'0 0.0
2017-Nov-19 04:41N 37°57' E 023°35'0 0.0
2017-Nov-19 04:29N 37°57' E 023°35'0 0.0
2017-Nov-19 03:59N 37°57' E 023°35'0 0.0
2017-Nov-19 03:29N 37°57' E 023°35'0 0.0
2017-Nov-19 02:59N 37°57' E 023°35'0 0.0
2017-Nov-19 02:20N 37°57' E 023°35'0 0.0
2017-Nov-19 01:38N 37°57' E 023°35'0 0.0
2017-Nov-19 01:23N 37°57' E 023°35'0 0.0
2017-Nov-19 00:44N 37°57' E 023°35'0 0.0
2017-Nov-19 00:26N 37°57' E 023°35'0 0.0
2017-Nov-18 23:59N 37°57' E 023°35'0 0.0
2017-Nov-18 23:26N 37°57' E 023°35'0 0.0
2017-Nov-18 22:59N 37°57' E 023°35'0 0.0
2017-Nov-18 20:56N 37°57' E 023°35'0 0.0
2017-Nov-18 07:26N 37°57' E 023°35'0 0.0
2017-Nov-18 06:59N 37°57' E 023°35'0 0.0
2017-Nov-18 02:26N 37°57' E 023°35'0 0.0
2017-Nov-18 01:44N 37°57' E 023°35'0 0.0
2017-Nov-18 01:20N 37°57' E 023°35'0 0.0
2017-Nov-18 00:50N 37°57' E 023°35'0 0.0
2017-Nov-18 00:26N 37°57' E 023°35'0 0.0
2017-Nov-17 21:32N 37°57' E 023°35'0 0.0
2017-Nov-17 21:26N 37°57' E 023°35'0 0.0
2017-Nov-17 19:08N 37°57' E 023°35'0 0.0
2017-Nov-17 18:56N 37°57' E 023°35'0 0.0
2017-Nov-17 18:29N 37°57' E 023°35'0 0.0
2017-Nov-17 17:44N 37°57' E 023°35'0 0.0
2017-Nov-17 17:26N 37°57' E 023°35'0 0.0
2017-Nov-17 15:02N 37°57' E 023°35'0 0.0
2017-Nov-17 14:59N 37°57' E 023°35'0 0.0
2017-Nov-17 13:35N 37°57' E 023°35'0 0.0
2017-Nov-17 13:26N 37°57' E 023°35'0 0.0
2017-Nov-17 11:38N 37°57' E 023°35'0 0.0
2017-Nov-17 11:20N 37°57' E 023°35'0 0.0
2017-Nov-17 10:59N 37°57' E 023°35'0 0.0
2017-Nov-17 10:29N 37°57' E 023°35'0 0.0
2017-Nov-17 09:59N 37°57' E 023°35'0 0.0
2017-Nov-17 09:29N 37°57' E 023°35'0 0.0
2017-Nov-17 08:59N 37°57' E 023°35'0 0.0
2017-Nov-17 08:26N 37°57' E 023°35'0 0.0
2017-Nov-17 07:59N 37°57' E 023°35'0 0.0
2017-Nov-17 07:26N 37°57' E 023°35'0 0.0
2017-Nov-17 06:59N 37°57' E 023°35'0 0.0
2017-Nov-17 06:29N 37°57' E 023°35'0 0.0
2017-Nov-17 05:59N 37°57' E 023°35'0 0.0
2017-Nov-17 05:29N 37°57' E 023°35'0 0.0
2017-Nov-17 04:59N 37°57' E 023°35'0 0.0
2017-Nov-17 04:26N 37°57' E 023°35'0 0.0
2017-Nov-17 03:59N 37°57' E 023°35'0 0.0
2017-Nov-17 03:29N 37°57' E 023°35'0 0.0
2017-Nov-17 02:59N 37°57' E 023°35'0 0.0
2017-Nov-17 02:29N 37°57' E 023°35'0 0.0
2017-Nov-17 01:59N 37°57' E 023°35'0 0.0
2017-Nov-17 01:29N 37°57' E 023°35'0 0.0
2017-Nov-17 00:59N 37°57' E 023°35'0 0.0
2017-Nov-17 00:29N 37°57' E 023°35'0 0.0
2017-Nov-16 23:59N 37°57' E 023°35'0 0.0
2017-Nov-16 23:29N 37°57' E 023°35'0 0.0
2017-Nov-16 22:59N 37°57' E 023°35'0 0.0
2017-Nov-16 22:29N 37°57' E 023°35'0 0.0
2017-Nov-16 21:59N 37°57' E 023°35'0 0.0
2017-Nov-16 21:29N 37°57' E 023°35'0 0.0
2017-Nov-16 20:59N 37°57' E 023°35'0 0.0
2017-Nov-16 20:29N 37°57' E 023°35'0 0.0
2017-Nov-16 19:59N 37°57' E 023°35'0 0.0
2017-Nov-16 19:29N 37°57' E 023°35'0 0.0
2017-Nov-16 18:59N 37°57' E 023°35'0 0.0
2017-Nov-16 18:29N 37°57' E 023°35'0 0.0
2017-Nov-16 17:59N 37°57' E 023°35'0 0.0
2017-Nov-16 17:29N 37°57' E 023°35'2 3.3
2017-Nov-16 17:00N 37°56' E 023°35'4 7.8
2017-Nov-16 16:30N 37°52' E 023°33'4 7.1
2017-Nov-16 16:01N 37°50' E 023°29'4 7.9
2017-Nov-16 15:30N 37°51' E 023°24'4 7.9
2017-Nov-16 15:00N 37°52' E 023°20'4 8.1
2017-Nov-16 14:30N 37°53' E 023°15'4 8.3
2017-Nov-16 14:01N 37°54' E 023°09'4 7.1
2017-Nov-16 13:30N 37°55' E 023°05'0 0.1
2017-Nov-16 13:00N 37°55' E 023°05'0 0.0
2017-Nov-16 12:30N 37°55' E 023°05'0 0.0
2017-Nov-16 12:00N 37°55' E 023°05'0 0.0
2017-Nov-16 11:30N 37°55' E 023°05'0 0.0
2017-Nov-16 11:00N 37°55' E 023°05'0 0.0
2017-Nov-16 10:30N 37°55' E 023°05'0 0.0
2017-Nov-16 10:00N 37°55' E 023°05'0 0.0
2017-Nov-16 09:30N 37°55' E 023°05'0 0.0
2017-Nov-16 09:00N 37°55' E 023°05'0 0.0
2017-Nov-16 08:30N 37°55' E 023°05'0 0.0
2017-Nov-16 08:00N 37°55' E 023°05'0 0.0
2017-Nov-16 07:30N 37°55' E 023°05'0 0.0
2017-Nov-16 07:00N 37°55' E 023°05'0 0.0
2017-Nov-16 06:30N 37°55' E 023°05'0 0.0
2017-Nov-16 06:00N 37°55' E 023°05'0 0.0
2017-Nov-16 05:30N 37°55' E 023°05'0 0.0
2017-Nov-16 05:00N 37°55' E 023°05'0 0.0
2017-Nov-16 04:30N 37°55' E 023°05'0 0.0
2017-Nov-16 04:00N 37°55' E 023°05'0 0.0
2017-Nov-16 03:30N 37°55' E 023°05'0 0.0
2017-Nov-16 03:00N 37°55' E 023°05'0 0.0
2017-Nov-16 02:30N 37°55' E 023°05'0 0.0
2017-Nov-16 02:00N 37°55' E 023°05'0 0.0
2017-Nov-16 01:30N 37°55' E 023°05'0 0.0
2017-Nov-16 01:00N 37°55' E 023°05'0 0.0
2017-Nov-16 00:30N 37°55' E 023°05'0 0.0
2017-Nov-16 00:00N 37°55' E 023°05'0 0.0
2017-Nov-15 23:30N 37°55' E 023°05'0 0.0
2017-Nov-15 23:00N 37°55' E 023°05'0 0.0
2017-Nov-15 22:30N 37°55' E 023°05'0 0.0
2017-Nov-15 22:00N 37°55' E 023°05'0 0.0
2017-Nov-15 21:30N 37°55' E 023°05'0 0.0
2017-Nov-15 21:00N 37°55' E 023°05'0 0.0
2017-Nov-15 20:30N 37°55' E 023°05'0 0.0
2017-Nov-15 20:00N 37°55' E 023°05'0 0.0
2017-Nov-15 19:30N 37°55' E 023°05'0 0.0
2017-Nov-15 19:00N 37°55' E 023°05'0 0.0
2017-Nov-15 18:30N 37°55' E 023°05'0 0.0
2017-Nov-15 18:00N 37°55' E 023°05'0 0.0
2017-Nov-15 17:30N 37°55' E 023°05'0 0.0
2017-Nov-15 17:00N 37°55' E 023°05'0 0.0
2017-Nov-15 16:30N 37°55' E 023°05'0 0.0
2017-Nov-15 16:00N 37°55' E 023°05'0 0.0
2017-Nov-15 15:30N 37°55' E 023°05'0 0.0
2017-Nov-15 15:00N 37°55' E 023°05'0 0.0
2017-Nov-15 14:30N 37°55' E 023°05'0 0.0
2017-Nov-15 14:00N 37°55' E 023°05'0 0.0
2017-Nov-15 13:30N 37°55' E 023°05'0 0.0
2017-Nov-15 13:00N 37°55' E 023°05'0 0.0
2017-Nov-15 12:30N 37°55' E 023°05'0 0.0
2017-Nov-15 12:00N 37°55' E 023°05'0 0.0
2017-Nov-15 11:30N 37°55' E 023°05'0 0.0
2017-Nov-15 11:00N 37°55' E 023°05'0 0.0
2017-Nov-15 10:30N 37°55' E 023°05'0 0.0
2017-Nov-15 10:00N 37°55' E 023°05'0 0.0
2017-Nov-15 09:30N 37°55' E 023°05'0 0.0
2017-Nov-15 09:00N 37°55' E 023°05'0 0.0
2017-Nov-15 08:30N 37°55' E 023°05'0 0.0
2017-Nov-15 08:00N 37°55' E 023°05'0 0.2
2017-Nov-15 07:31N 37°55' E 023°05'1 1.0
2017-Nov-15 06:59N 37°55' E 023°06'0 0.1
2017-Nov-15 06:29N 37°55' E 023°06'0 0.1
2017-Nov-15 05:59N 37°55' E 023°06'0 0.0
2017-Nov-15 05:29N 37°55' E 023°06'0 0.0
2017-Nov-15 04:59N 37°55' E 023°06'0 0.0
2017-Nov-15 04:29N 37°55' E 023°06'0 0.0
2017-Nov-15 03:59N 37°55' E 023°06'0 0.0
2017-Nov-15 03:29N 37°55' E 023°06'0 0.0
2017-Nov-15 02:59N 37°55' E 023°06'0 0.0
2017-Nov-15 02:26N 37°55' E 023°06'0 0.0
2017-Nov-15 01:59N 37°55' E 023°06'0 0.0
2017-Nov-15 01:29N 37°55' E 023°06'0 0.1
2017-Nov-15 00:59N 37°55' E 023°06'0 0.0
2017-Nov-15 00:29N 37°55' E 023°06'0 0.0
2017-Nov-14 23:59N 37°55' E 023°06'0 0.0
2017-Nov-14 23:29N 37°55' E 023°06'0 0.1
2017-Nov-14 23:00N 37°55' E 023°06'3 6.5
2017-Nov-14 22:30N 37°54' E 023°10'5 9.5
2017-Nov-14 22:00N 37°53' E 023°16'5 9.5
2017-Nov-14 21:30N 37°52' E 023°22'5 9.8
2017-Nov-14 21:00N 37°52' E 023°28'5 9.4
2017-Nov-14 20:30N 37°54' E 023°33'3 6.9
2017-Nov-14 20:00N 37°57' E 023°35'0 0.0
2017-Nov-14 19:30N 37°57' E 023°35'0 0.0
2017-Nov-14 19:00N 37°57' E 023°35'0 0.0
2017-Nov-14 18:30N 37°57' E 023°35'0 0.0
2017-Nov-14 18:00N 37°57' E 023°35'0 0.0
2017-Nov-14 17:30N 37°57' E 023°35'0 0.0
2017-Nov-14 17:00N 37°57' E 023°35'0 0.0
2017-Nov-14 16:30N 37°57' E 023°35'0 0.0
2017-Nov-14 16:00N 37°57' E 023°35'0 0.0
2017-Nov-14 15:30N 37°57' E 023°35'0 0.0
2017-Nov-14 15:00N 37°57' E 023°35'0 0.0
2017-Nov-14 14:30N 37°57' E 023°35'0 0.0
2017-Nov-14 14:00N 37°57' E 023°35'0 0.0
2017-Nov-14 13:30N 37°57' E 023°35'0 0.0
2017-Nov-14 13:00N 37°57' E 023°35'0 0.0
2017-Nov-14 12:30N 37°57' E 023°35'0 0.0
2017-Nov-14 12:00N 37°57' E 023°35'0 0.0
2017-Nov-14 11:30N 37°57' E 023°35'0 0.0
2017-Nov-14 11:00N 37°57' E 023°35'0 0.0
2017-Nov-14 10:30N 37°57' E 023°35'0 0.0
2017-Nov-14 10:00N 37°57' E 023°35'0 0.0
2017-Nov-14 09:30N 37°57' E 023°35'0 0.0
2017-Nov-14 09:00N 37°57' E 023°35'0 0.0
2017-Nov-14 08:27N 37°57' E 023°35'0 0.0
2017-Nov-14 08:00N 37°57' E 023°35'0 0.0
2017-Nov-14 07:30N 37°57' E 023°35'0 0.0
2017-Nov-14 07:00N 37°57' E 023°35'0 0.0
2017-Nov-14 06:30N 37°57' E 023°35'0 0.0
2017-Nov-14 06:00N 37°57' E 023°35'0 0.0
2017-Nov-14 05:30N 37°57' E 023°35'0 0.0
2017-Nov-14 05:00N 37°57' E 023°35'0 0.0
2017-Nov-14 04:30N 37°57' E 023°35'0 0.0
2017-Nov-14 04:00N 37°57' E 023°35'0 0.0
2017-Nov-14 03:30N 37°57' E 023°35'0 0.0
2017-Nov-14 03:00N 37°57' E 023°35'0 0.0
2017-Nov-14 02:30N 37°57' E 023°35'0 0.0
2017-Nov-14 02:00N 37°57' E 023°35'0 0.0
2017-Nov-14 01:30N 37°57' E 023°35'0 0.0
2017-Nov-14 01:00N 37°57' E 023°35'0 0.0
2017-Nov-14 00:30N 37°57' E 023°35'0 0.0
2017-Nov-14 00:00N 37°57' E 023°35'0 0.0
2017-Nov-13 23:30N 37°57' E 023°35'0 0.0
2017-Nov-13 23:00N 37°57' E 023°35'0 0.0
2017-Nov-13 22:30N 37°57' E 023°35'0 0.0
2017-Nov-13 22:00N 37°57' E 023°35'0 0.0
2017-Nov-13 02:00N 37°57' E 023°35'0 0.0
2017-Nov-13 01:30N 37°57' E 023°35'0 0.0
2017-Nov-13 01:00N 37°57' E 023°35'0 0.0
2017-Nov-13 00:30N 37°57' E 023°35'0 0.0
2017-Nov-13 00:00N 37°57' E 023°35'0 0.0
2017-Nov-12 23:30N 37°57' E 023°35'0 0.0
2017-Nov-12 23:00N 37°57' E 023°35'0 0.0
2017-Nov-12 22:30N 37°57' E 023°35'0 0.0
2017-Nov-12 22:00N 37°57' E 023°35'0 0.0
2017-Nov-12 21:30N 37°57' E 023°35'0 0.0
2017-Nov-12 21:00N 37°57' E 023°35'0 0.0
2017-Nov-12 20:30N 37°57' E 023°35'  

Dump ship's entire track history